createdAt,value
2022-10-19T00:00:49.739Z,7.57
2022-10-19T00:03:56.777Z,7.67
2022-10-19T00:07:03.166Z,7.65
2022-10-19T00:10:08.915Z,7.58
2022-10-19T00:13:14.068Z,7.66
2022-10-19T00:16:20.237Z,7.55
2022-10-19T00:19:27.494Z,7.62
2022-10-19T00:22:33.958Z,7.58
2022-10-19T00:25:39.427Z,7.43
2022-10-19T00:28:44.921Z,7.46
2022-10-19T00:32:07.870Z,7.50
2022-10-19T00:35:30.563Z,7.48
2022-10-19T00:38:36.764Z,7.37
2022-10-19T00:41:42.731Z,7.41
2022-10-19T00:45:15.931Z,7.48
2022-10-19T00:48:26.789Z,7.38
2022-10-19T00:51:33.607Z,7.21
2022-10-19T00:54:42.010Z,7.27
2022-10-19T00:57:46.785Z,7.26
2022-10-19T01:05:11.715Z,7.31
2022-10-19T01:08:17.712Z,7.25
2022-10-19T01:11:38.065Z,7.16
2022-10-19T01:14:59.087Z,7.24
2022-10-19T01:18:11.161Z,7.18
2022-10-19T01:21:27.319Z,7.12
2022-10-19T01:24:46.637Z,6.95
2022-10-19T01:28:05.211Z,7.09
2022-10-19T01:31:22.008Z,7.06
2022-10-19T01:34:33.140Z,7.10
2022-10-19T01:37:42.602Z,7.02
2022-10-19T01:40:56.693Z,7.05
2022-10-19T01:44:06.793Z,6.91
2022-10-19T01:47:18.223Z,6.95
2022-10-19T01:50:33.344Z,6.88
2022-10-19T01:53:42.629Z,6.89
2022-10-19T01:56:49.826Z,6.72
2022-10-19T01:59:56.439Z,6.77
2022-10-19T02:03:05.908Z,6.77
2022-10-19T02:06:13.476Z,6.80
2022-10-19T02:09:20.194Z,6.59
2022-10-19T02:12:26.071Z,6.75
2022-10-19T02:15:32.806Z,6.71
2022-10-19T02:18:43.931Z,6.69
2022-10-19T02:21:49.195Z,6.60
2022-10-19T02:24:54.008Z,6.68
2022-10-19T02:27:58.733Z,6.61
2022-10-19T02:31:03.616Z,6.62
2022-10-19T02:34:10.299Z,6.66
2022-10-19T02:37:15.096Z,6.68
2022-10-19T02:40:20.465Z,6.64
2022-10-19T02:43:26.662Z,6.60
2022-10-19T02:46:37.181Z,6.64
2022-10-19T02:49:44.380Z,6.53
2022-10-19T02:52:49.164Z,6.59
2022-10-19T02:55:54.116Z,6.65
2022-10-19T02:59:00.409Z,6.55
2022-10-19T03:02:05.083Z,6.49
2022-10-19T03:05:12.166Z,6.51
2022-10-19T03:08:17.871Z,6.43
2022-10-19T03:11:22.886Z,6.40
2022-10-19T03:14:27.783Z,6.46
2022-10-19T03:17:32.871Z,6.43
2022-10-19T03:20:39.272Z,6.49
2022-10-19T03:23:44.285Z,6.32
2022-10-19T03:26:49.056Z,6.45
2022-10-19T03:29:53.832Z,6.39
2022-10-19T03:32:58.927Z,6.47
2022-10-19T03:36:23.025Z,6.41
2022-10-19T03:39:28.019Z,6.39
2022-10-19T03:42:32.709Z,6.35
2022-10-19T03:45:37.555Z,6.32
2022-10-19T03:48:42.950Z,6.45
2022-10-19T03:51:49.434Z,6.43
2022-10-19T03:54:54.268Z,6.41
2022-10-19T03:57:59.739Z,6.33
2022-10-19T04:01:09.842Z,6.18
2022-10-19T04:04:17.664Z,6.23
2022-10-19T04:07:23.781Z,6.21
2022-10-19T04:10:28.811Z,6.29
2022-10-19T04:13:34.841Z,6.28
2022-10-19T04:16:39.549Z,6.31
2022-10-19T04:19:44.391Z,6.33
2022-10-19T04:22:50.439Z,6.21
2022-10-19T04:26:01.997Z,6.21
2022-10-19T04:29:07.082Z,6.24
2022-10-19T04:32:12.170Z,6.07
2022-10-19T04:35:17.190Z,6.04
2022-10-19T04:38:23.478Z,6.02
2022-10-19T04:41:28.284Z,5.91
2022-10-19T04:44:33.024Z,5.99
2022-10-19T04:47:38.029Z,6.15
2022-10-19T04:50:43.208Z,6.24
2022-10-19T04:53:59.979Z,6.10
2022-10-19T04:57:05.767Z,6.14
2022-10-19T05:00:13.508Z,6.10
2022-10-19T05:03:19.564Z,5.90
2022-10-19T05:06:24.787Z,5.88
2022-10-19T05:09:30.997Z,5.88
2022-10-19T05:12:36.851Z,5.97
2022-10-19T05:15:42.329Z,5.95
2022-10-19T05:18:50.312Z,5.97
2022-10-19T05:21:55.038Z,5.82
2022-10-19T05:25:01.109Z,5.85
2022-10-19T05:28:06.035Z,5.92
2022-10-19T05:31:16.058Z,5.94
2022-10-19T05:34:21.424Z,5.97
2022-10-19T05:37:26.676Z,5.82
2022-10-19T05:40:33.255Z,5.70
2022-10-19T05:43:38.458Z,5.71
2022-10-19T05:46:43.473Z,5.81
2022-10-19T05:49:49.238Z,5.66
2022-10-19T05:52:54.375Z,5.59
2022-10-19T05:56:00.473Z,5.57
2022-10-19T05:59:07.144Z,5.51
2022-10-19T06:02:15.162Z,5.60
2022-10-19T06:05:20.389Z,5.60
2022-10-19T06:08:26.142Z,5.71
2022-10-19T06:11:35.122Z,5.51
2022-10-19T06:14:40.825Z,5.62
2022-10-19T06:17:45.884Z,5.59
2022-10-19T06:20:50.666Z,5.61
2022-10-19T06:23:57.752Z,5.68
2022-10-19T06:27:03.783Z,5.60
2022-10-19T06:30:11.539Z,5.69
2022-10-19T06:33:18.829Z,5.76
2022-10-19T06:36:26.229Z,5.76
2022-10-19T06:39:31.206Z,5.79
2022-10-19T06:42:39.056Z,5.75
2022-10-19T06:45:43.723Z,5.82
2022-10-19T06:48:52.667Z,5.79
2022-10-19T06:51:57.400Z,5.83
2022-10-19T06:55:02.575Z,5.86
2022-10-19T06:58:08.767Z,5.84
2022-10-19T07:01:14.155Z,5.89
2022-10-19T07:04:20.663Z,6.02
2022-10-19T07:07:26.904Z,6.10
2022-10-19T07:10:31.619Z,6.14
2022-10-19T07:13:37.885Z,6.22
2022-10-19T07:16:42.566Z,6.24
2022-10-19T07:19:47.847Z,6.28
2022-10-19T07:22:52.564Z,6.29
2022-10-19T07:26:01.587Z,6.33
2022-10-19T07:29:07.998Z,6.38
2022-10-19T07:32:15.141Z,6.39
2022-10-19T07:35:19.951Z,6.40
2022-10-19T07:38:24.853Z,6.48
2022-10-19T07:41:29.926Z,6.50
2022-10-19T07:44:36.433Z,6.52
2022-10-19T07:47:41.462Z,6.54
2022-10-19T07:50:49.288Z,6.52
2022-10-19T07:53:54.280Z,6.56
2022-10-19T07:56:59.101Z,6.64
2022-10-19T08:00:06.797Z,6.64
2022-10-19T08:04:14.348Z,6.71
2022-10-19T08:06:42.035Z,6.71
2022-10-19T08:09:53.320Z,6.80
2022-10-19T08:12:58.645Z,6.84
2022-10-19T08:16:05.823Z,6.88
2022-10-19T08:19:14.460Z,6.92
2022-10-19T08:22:19.752Z,6.94
2022-10-19T08:25:24.890Z,6.94
2022-10-19T08:28:30.225Z,7.00
2022-10-19T08:31:36.719Z,7.08
2022-10-19T08:34:42.171Z,7.10
2022-10-19T08:37:47.596Z,7.12
2022-10-19T08:40:52.696Z,7.13
2022-10-19T08:44:22.559Z,7.23
2022-10-19T08:47:44.733Z,7.23
2022-10-19T08:50:50.252Z,7.29
2022-10-19T08:53:57.802Z,7.32
2022-10-19T08:57:09.974Z,7.35
2022-10-19T09:00:21.432Z,7.40
2022-10-19T09:03:56.927Z,7.43
2022-10-19T09:07:21.802Z,7.44
2022-10-19T09:10:29.855Z,7.50
2022-10-19T09:13:47.262Z,7.52
2022-10-19T09:17:11.503Z,7.61
2022-10-19T09:20:21.318Z,7.63
2022-10-19T09:23:31.094Z,7.65
2022-10-19T09:26:42.038Z,7.69
2022-10-19T09:29:51.409Z,7.76
2022-10-19T09:33:01.661Z,7.83
2022-10-19T09:36:15.028Z,7.87
2022-10-19T09:39:30.597Z,7.97
2022-10-19T09:42:37.052Z,8.09
2022-10-19T09:45:47.469Z,8.13
2022-10-19T09:48:54.096Z,8.17
2022-10-19T09:52:00.336Z,8.15
2022-10-19T09:55:07.769Z,8.15
2022-10-19T09:58:19.895Z,8.21
2022-10-19T10:01:41.613Z,8.23
2022-10-19T10:04:48.815Z,8.24
2022-10-19T10:07:56.754Z,8.31
2022-10-19T10:11:13.713Z,8.41
2022-10-19T10:14:22.567Z,8.52
2022-10-19T10:17:31.577Z,8.54
2022-10-19T10:20:36.591Z,8.56
2022-10-19T10:23:43.727Z,8.63
2022-10-19T10:26:51.797Z,8.58
2022-10-19T10:29:57.850Z,8.64
2022-10-19T10:33:13.274Z,8.61
2022-10-19T10:36:27.398Z,8.70
2022-10-19T10:39:34.366Z,8.73
2022-10-19T10:42:46.672Z,8.75
2022-10-19T10:45:53.355Z,8.79
2022-10-19T10:48:59.828Z,8.82
2022-10-19T10:52:08.766Z,8.86
2022-10-19T10:55:19.564Z,8.89
2022-10-19T10:58:37.051Z,8.95
2022-10-19T11:01:44.045Z,8.96
2022-10-19T11:04:53.670Z,8.97
2022-10-19T11:08:07.500Z,9.00
2022-10-19T11:11:18.707Z,9.01
2022-10-19T11:14:38.452Z,9.12
2022-10-19T11:17:54.815Z,9.13
2022-10-19T11:21:07.889Z,9.13
2022-10-19T11:24:22.149Z,9.25
2022-10-19T11:27:41.407Z,9.28
2022-10-19T11:30:58.768Z,9.32
2022-10-19T11:34:11.895Z,9.34
2022-10-19T11:37:26.191Z,9.40
2022-10-19T11:40:45.775Z,9.42
2022-10-19T11:44:17.780Z,9.51
2022-10-19T11:47:51.130Z,9.52
2022-10-19T11:51:16.770Z,9.45
2022-10-19T11:54:38.502Z,9.48
2022-10-19T11:57:50.895Z,9.51
2022-10-19T12:01:04.019Z,9.52
2022-10-19T12:04:46.539Z,9.56
2022-10-19T12:08:02.952Z,9.63
2022-10-19T12:11:24.474Z,9.66
2022-10-19T12:14:33.252Z,9.77
2022-10-19T12:17:42.162Z,9.85
2022-10-19T12:20:50.275Z,9.85
2022-10-19T12:23:55.191Z,9.93
2022-10-19T12:27:00.764Z,9.81
2022-10-19T12:30:14.660Z,9.88
2022-10-19T12:33:25.010Z,9.85
2022-10-19T12:36:38.211Z,9.93
2022-10-19T12:39:50.923Z,9.94
2022-10-19T12:43:01.436Z,9.94
2022-10-19T12:46:16.198Z,9.96
2022-10-19T12:49:45.076Z,9.88
2022-10-19T12:52:52.387Z,9.96
2022-10-19T12:56:02.341Z,9.92
2022-10-19T12:59:24.233Z,9.97
2022-10-19T13:05:44.372Z,9.97
2022-10-19T13:08:56.771Z,9.99
2022-10-19T13:12:48.404Z,9.98
2022-10-19T13:15:54.271Z,9.96
2022-10-19T13:19:22.099Z,9.95
2022-10-19T13:22:29.855Z,9.83
2022-10-19T13:25:35.151Z,9.79
2022-10-19T13:28:40.716Z,9.74
2022-10-19T13:31:45.378Z,9.75
2022-10-19T13:34:51.259Z,9.69
2022-10-19T13:38:26.395Z,9.62
2022-10-19T13:41:53.851Z,9.66
2022-10-19T13:44:58.972Z,9.65
2022-10-19T13:48:11.682Z,9.71
2022-10-19T13:51:24.411Z,9.73
2022-10-19T13:54:47.042Z,9.71
2022-10-19T13:58:14.183Z,9.77
2022-10-19T14:01:30.678Z,9.80
2022-10-19T14:04:44.902Z,9.79
2022-10-19T14:08:02.448Z,9.73
2022-10-19T14:11:16.182Z,9.69
2022-10-19T14:14:22.864Z,9.63
2022-10-19T14:17:30.223Z,9.61
2022-10-19T14:20:37.367Z,9.63
2022-10-19T14:23:42.720Z,9.49
2022-10-19T14:26:49.300Z,9.49
2022-10-19T14:29:55.742Z,9.52
2022-10-19T14:33:02.515Z,9.52
2022-10-19T14:36:09.331Z,9.52
2022-10-19T14:39:30.761Z,9.46
2022-10-19T14:42:46.237Z,9.54
2022-10-19T14:46:13.161Z,9.52
2022-10-19T14:49:19.688Z,9.42
2022-10-19T14:55:41.011Z,9.40
2022-10-19T14:58:52.035Z,9.35
2022-10-19T15:01:59.825Z,9.35
2022-10-19T15:05:06.653Z,9.35
2022-10-19T15:08:23.647Z,9.31
2022-10-19T15:11:31.901Z,9.25
2022-10-19T15:14:39.355Z,9.19
2022-10-19T15:17:53.300Z,9.04
2022-10-19T15:21:12.955Z,9.07
2022-10-19T15:24:27.654Z,9.03
2022-10-19T15:27:34.922Z,9.01
2022-10-19T15:30:41.085Z,8.96
2022-10-19T15:33:50.888Z,9.01
2022-10-19T15:36:57.463Z,8.97
2022-10-19T15:40:12.290Z,8.96
2022-10-19T15:43:45.699Z,8.91
2022-10-19T15:47:23.633Z,8.88
2022-10-19T15:50:38.190Z,8.73
2022-10-19T15:53:42.819Z,8.78
2022-10-19T15:56:52.766Z,8.72
2022-10-19T15:59:59.637Z,8.73
2022-10-19T16:03:06.486Z,8.69
2022-10-19T16:06:13.048Z,8.66
2022-10-19T16:09:21.335Z,8.65
2022-10-19T16:12:27.176Z,8.57
2022-10-19T16:15:31.854Z,8.57
2022-10-19T16:18:38.072Z,8.55
2022-10-19T16:21:46.685Z,8.46
2022-10-19T16:24:54.144Z,8.45
2022-10-19T16:27:58.775Z,8.46
2022-10-19T16:31:04.171Z,8.39
2022-10-19T16:34:10.403Z,8.34
2022-10-19T16:37:15.127Z,8.41
2022-10-19T16:40:19.971Z,8.42
2022-10-19T16:43:24.669Z,8.42
2022-10-19T16:46:29.417Z,8.38
2022-10-19T16:49:35.541Z,8.38
2022-10-19T16:52:40.399Z,8.46
2022-10-19T16:55:45.116Z,8.43
2022-10-19T16:58:50.275Z,8.36
2022-10-19T17:01:55.056Z,8.37
2022-10-19T17:05:01.321Z,8.33
2022-10-19T17:08:06.892Z,8.39
2022-10-19T17:11:15.946Z,8.34
2022-10-19T17:14:20.785Z,8.40
2022-10-19T17:17:25.619Z,8.21
2022-10-19T17:20:33.312Z,8.34
2022-10-19T17:23:38.328Z,8.36
2022-10-19T17:26:45.208Z,8.17
2022-10-19T17:29:50.598Z,8.34
2022-10-19T17:32:55.302Z,8.28
2022-10-19T17:36:08.530Z,8.34
2022-10-19T17:39:17.721Z,8.33
2022-10-19T17:42:22.688Z,8.25
2022-10-19T17:45:27.431Z,8.22
2022-10-19T17:48:32.264Z,8.23
2022-10-19T17:51:40.365Z,8.16
2022-10-19T17:54:54.715Z,8.12
2022-10-19T17:58:11.464Z,8.18
2022-10-19T18:01:19.185Z,8.16
2022-10-19T18:04:23.978Z,8.15
2022-10-19T18:07:30.915Z,8.13
2022-10-19T18:10:38.035Z,8.03
2022-10-19T18:13:43.470Z,8.04
2022-10-19T18:16:48.886Z,7.98
2022-10-19T18:19:53.728Z,8.03
2022-10-19T18:22:59.799Z,7.99
2022-10-19T18:26:08.263Z,7.97
2022-10-19T18:29:18.995Z,7.97
2022-10-19T18:32:23.996Z,8.02
2022-10-19T18:35:28.782Z,7.95
2022-10-19T18:38:35.151Z,7.97
2022-10-19T18:41:40.613Z,7.94
2022-10-19T18:44:47.185Z,7.94
2022-10-19T18:47:51.920Z,7.93
2022-10-19T18:50:57.062Z,7.86
2022-10-19T18:54:03.226Z,7.92
2022-10-19T18:57:08.321Z,7.82
2022-10-19T19:00:14.670Z,7.84
2022-10-19T19:03:20.664Z,7.88
2022-10-19T19:06:29.003Z,7.85
2022-10-19T19:09:35.053Z,7.87
2022-10-19T19:12:39.699Z,7.85
2022-10-19T19:15:44.405Z,7.90
2022-10-19T19:18:49.287Z,7.89
2022-10-19T19:21:54.568Z,7.87
2022-10-19T19:25:00.684Z,7.76
2022-10-19T19:28:05.447Z,7.75
2022-10-19T19:31:11.952Z,7.77
2022-10-19T19:34:16.892Z,7.79
2022-10-19T19:37:21.567Z,7.81
2022-10-19T19:40:27.715Z,7.85
2022-10-19T19:43:33.675Z,7.82
2022-10-19T19:46:39.017Z,7.79
2022-10-19T19:49:43.675Z,7.76
2022-10-19T19:52:48.636Z,7.75
2022-10-19T19:55:54.856Z,7.76
2022-10-19T19:59:03.468Z,7.78
2022-10-19T20:02:10.058Z,7.73
2022-10-19T20:05:14.679Z,7.70
2022-10-19T20:08:19.502Z,7.66
2022-10-19T20:11:29.338Z,7.60
2022-10-19T20:14:33.965Z,7.68
2022-10-19T20:17:38.950Z,7.57
2022-10-19T20:20:43.707Z,7.62
2022-10-19T20:23:49.568Z,7.53
2022-10-19T20:26:55.896Z,7.48
2022-10-19T20:30:00.543Z,7.53
2022-10-19T20:33:05.761Z,7.54
2022-10-19T20:36:15.938Z,7.51
2022-10-19T20:39:20.875Z,7.47
2022-10-19T20:42:27.081Z,7.47
2022-10-19T20:45:32.150Z,7.43
2022-10-19T20:48:37.238Z,7.39
2022-10-19T20:51:42.002Z,7.42
2022-10-19T20:54:46.758Z,7.42
2022-10-19T20:57:52.798Z,7.38
2022-10-19T21:00:57.483Z,7.33
2022-10-19T21:04:04.702Z,7.38
2022-10-19T21:07:09.664Z,7.36
2022-10-19T21:10:15.436Z,7.27
2022-10-19T21:13:21.790Z,7.35
2022-10-19T21:16:30.017Z,7.36
2022-10-19T21:19:34.835Z,7.39
2022-10-19T21:22:41.470Z,7.35
2022-10-19T21:25:55.672Z,7.32
2022-10-19T21:29:02.421Z,7.30
2022-10-19T21:32:07.208Z,7.29
2022-10-19T21:35:12.052Z,7.26
2022-10-19T21:38:16.700Z,7.23
2022-10-19T21:41:26.174Z,7.23
2022-10-19T21:44:32.642Z,7.19
2022-10-19T21:47:37.947Z,7.29
2022-10-19T21:50:43.065Z,7.32
2022-10-19T21:53:47.937Z,7.31
2022-10-19T21:56:53.298Z,7.35
2022-10-19T21:59:59.821Z,7.30
2022-10-19T22:03:04.819Z,7.29
2022-10-19T22:06:09.700Z,7.35
2022-10-19T22:09:19.285Z,7.30
2022-10-19T22:12:24.197Z,7.27
2022-10-19T22:15:30.683Z,7.26
2022-10-19T22:18:35.775Z,7.22
2022-10-19T22:21:41.431Z,7.24
2022-10-19T22:24:46.163Z,7.24
2022-10-19T22:27:51.540Z,7.24
2022-10-19T22:30:59.770Z,7.07
2022-10-19T22:34:07.883Z,7.11
2022-10-19T22:37:12.628Z,6.99
2022-10-19T22:40:17.471Z,7.13
2022-10-19T22:43:22.528Z,7.14
2022-10-19T22:46:28.980Z,7.14
2022-10-19T22:49:34.087Z,7.18
2022-10-19T22:52:39.962Z,7.07
2022-10-19T22:55:44.981Z,7.11
2022-10-19T22:58:49.800Z,7.02
2022-10-19T23:01:56.248Z,7.01
2022-10-19T23:05:01.262Z,7.08
2022-10-19T23:08:06.896Z,7.04
2022-10-19T23:11:12.676Z,7.04
2022-10-19T23:14:17.750Z,7.04
2022-10-19T23:17:23.975Z,7.08
2022-10-19T23:20:28.816Z,7.07
2022-10-19T23:23:34.993Z,7.07
2022-10-19T23:26:40.347Z,7.10
2022-10-19T23:29:45.467Z,7.04
2022-10-19T23:32:51.815Z,7.04
2022-10-19T23:35:56.634Z,7.02
2022-10-19T23:39:01.634Z,7.02
2022-10-19T23:42:06.880Z,7.00
2022-10-19T23:45:15.265Z,7.05
2022-10-19T23:48:21.555Z,7.00
2022-10-19T23:51:26.323Z,7.00
2022-10-19T23:54:31.418Z,6.93
2022-10-19T23:57:36.541Z,6.94
